Terminal Aerodrome Forecast
Issued by NWS

Home | Current Version | Previous Version | Text Only | Print | Product List | Glossary On
Versions: 1 2 3 4 5 6 7 8 9 10 11 12 13 14 15 16 17 18 19 20 21 22 23 24 25 26
000
FTUS42 KCAE 041421 AAA
TAFCUB
TAF AMD
KCUB 041421Z 0414/0512 09005KT P6SM -SHRA OVC040
     FM042100 08004KT 5SM -RA BR OVC020
     FM050000 08004KT 3SM -RA BR OVC010
     FM050900 36005KT 3SM -RA BR OVC008=

USA.gov is the U.S. government's official web portal to all federal, state and local government web resources and services.